sensor_id;sensor_type;location;lat;lon;timestamp;pressure;altitude;pressure_sealevel;temperature;humidity
29461;BME280;16428;47.836;35.106;2023-03-22T00:00:09;101267.69;;;5.96;100.00
29461;BME280;16428;47.836;35.106;2023-03-22T00:02:41;101271.38;;;5.95;100.00
29461;BME280;16428;47.836;35.106;2023-03-22T00:05:09;101268.19;;;5.80;100.00
29461;BME280;16428;47.836;35.106;2023-03-22T00:07:57;101268.47;;;5.87;100.00
29461;BME280;16428;47.836;35.106;2023-03-22T00:10:25;101268.00;;;5.93;100.00
29461;BME280;16428;47.836;35.106;2023-03-22T00:12:55;101263.66;;;5.81;100.00
29461;BME280;16428;47.836;35.106;2023-03-22T00:15:23;101262.53;;;5.74;100.00
29461;BME280;16428;47.836;35.106;2023-03-22T00:17:51;101261.47;;;5.86;100.00
29461;BME280;16428;47.836;35.106;2023-03-22T00:20:20;101267.34;;;5.80;100.00
29461;BME280;16428;47.836;35.106;2023-03-22T00:22:49;101265.09;;;5.85;100.00
29461;BME280;16428;47.836;35.106;2023-03-22T00:25:19;101277.72;;;5.83;100.00
29461;BME280;16428;47.836;35.106;2023-03-22T00:27:47;101276.38;;;5.88;100.00
29461;BME280;16428;47.836;35.106;2023-03-22T00:30:15;101267.91;;;5.83;100.00
29461;BME280;16428;47.836;35.106;2023-03-22T00:32:43;101266.44;;;5.70;100.00
29461;BME280;16428;47.836;35.106;2023-03-22T00:35:11;101270.31;;;5.65;100.00
29461;BME280;16428;47.836;35.106;2023-03-22T00:37:39;101271.00;;;5.58;100.00
29461;BME280;16428;47.836;35.106;2023-03-22T00:40:08;101271.31;;;5.64;100.00
29461;BME280;16428;47.836;35.106;2023-03-22T00:42:38;101262.41;;;5.54;100.00
29461;BME280;16428;47.836;35.106;2023-03-22T00:45:09;101269.44;;;5.55;100.00
29461;BME280;16428;47.836;35.106;2023-03-22T00:47:37;101268.66;;;5.64;100.00
29461;BME280;16428;47.836;35.106;2023-03-22T00:50:06;101266.84;;;5.65;100.00
29461;BME280;16428;47.836;35.106;2023-03-22T00:52:34;101267.22;;;5.60;100.00
29461;BME280;16428;47.836;35.106;2023-03-22T00:55:01;101262.75;;;5.61;100.00
29461;BME280;16428;47.836;35.106;2023-03-22T00:57:29;101261.22;;;5.89;100.00
29461;BME280;16428;47.836;35.106;2023-03-22T00:59:57;101260.38;;;5.68;100.00
29461;BME280;16428;47.836;35.106;2023-03-22T01:02:24;101260.03;;;5.82;100.00
29461;BME280;16428;47.836;35.106;2023-03-22T01:04:56;101256.19;;;5.65;100.00
29461;BME280;16428;47.836;35.106;2023-03-22T01:07:26;101252.94;;;5.61;100.00
29461;BME280;16428;47.836;35.106;2023-03-22T01:09:54;101261.91;;;5.60;100.00
29461;BME280;16428;47.836;35.106;2023-03-22T01:12:21;101259.81;;;5.64;100.00
29461;BME280;16428;47.836;35.106;2023-03-22T01:14:49;101259.81;;;5.64;100.00
29461;BME280;16428;47.836;35.106;2023-03-22T01:17:18;101264.09;;;5.55;100.00
29461;BME280;16428;47.836;35.106;2023-03-22T01:19:45;101276.44;;;5.56;100.00
29461;BME280;16428;47.836;35.106;2023-03-22T01:22:13;101265.28;;;5.62;100.00
29461;BME280;16428;47.836;35.106;2023-03-22T01:24:42;101276.44;;;5.56;100.00
29461;BME280;16428;47.836;35.106;2023-03-22T01:27:10;101270.28;;;5.56;100.00
29461;BME280;16428;47.836;35.106;2023-03-22T01:29:37;101268.72;;;5.53;100.00
29461;BME280;16428;47.836;35.106;2023-03-22T01:32:05;101269.13;;;5.49;100.00
29461;BME280;16428;47.836;35.106;2023-03-22T01:34:33;101271.19;;;5.45;100.00
29461;BME280;16428;47.836;35.106;2023-03-22T01:37:00;101266.00;;;5.44;100.00
29461;BME280;16428;47.836;35.106;2023-03-22T01:39:28;101262.16;;;5.57;100.00
29461;BME280;16428;47.836;35.106;2023-03-22T01:41:55;101267.22;;;5.60;100.00
29461;BME280;16428;47.836;35.106;2023-03-22T01:44:23;101270.06;;;5.69;100.00
29461;BME280;16428;47.836;35.106;2023-03-22T01:46:50;101272.09;;;5.55;100.00
29461;BME280;16428;47.836;35.106;2023-03-22T01:49:31;101264.94;;;5.56;100.00
29461;BME280;16428;47.836;35.106;2023-03-22T01:52:04;101269.69;;;5.52;100.00
29461;BME280;16428;47.836;35.106;2023-03-22T01:54:47;101268.91;;;5.61;100.00
29461;BME280;16428;47.836;35.106;2023-03-22T01:57:16;101275.13;;;5.72;100.00
29461;BME280;16428;47.836;35.106;2023-03-22T01:59:45;101279.84;;;5.58;100.00
29461;BME280;16428;47.836;35.106;2023-03-22T02:02:16;101287.25;;;5.76;100.00
29461;BME280;16428;47.836;35.106;2023-03-22T02:04:48;101280.56;;;5.60;100.00
29461;BME280;16428;47.836;35.106;2023-03-22T02:07:24;101288.94;;;5.56;100.00
29461;BME280;16428;47.836;35.106;2023-03-22T02:10:21;101289.06;;;5.54;100.00
29461;BME280;16428;47.836;35.106;2023-03-22T02:13:06;101283.22;;;5.60;100.00
29461;BME280;16428;47.836;35.106;2023-03-22T02:18:51;101289.91;;;5.55;100.00
29461;BME280;16428;47.836;35.106;2023-03-22T02:44:14;101308.56;;;5.34;100.00
29461;BME280;16428;47.836;35.106;2023-03-22T02:46:47;101308.69;;;5.33;100.00
29461;BME280;16428;47.836;35.106;2023-03-22T02:49:33;101311.47;;;5.31;100.00
29461;BME280;16428;47.836;35.106;2023-03-22T02:52:14;101308.94;;;5.29;100.00
29461;BME280;16428;47.836;35.106;2023-03-22T02:57:49;101311.59;;;5.29;100.00
29461;BME280;16428;47.836;35.106;2023-03-22T03:00:20;101311.16;;;5.45;100.00
29461;BME280;16428;47.836;35.106;2023-03-22T03:02:52;101310.75;;;5.29;100.00
29461;BME280;16428;47.836;35.106;2023-03-22T03:05:23;101315.31;;;5.38;100.00
29461;BME280;16428;47.836;35.106;2023-03-22T03:07:56;101310.53;;;5.21;100.00
29461;BME280;16428;47.836;35.106;2023-03-22T03:10:31;101305.44;;;5.29;100.00
29461;BME280;16428;47.836;35.106;2023-03-22T03:12:59;101301.59;;;5.22;100.00
29461;BME280;16428;47.836;35.106;2023-03-22T03:15:27;101305.50;;;5.18;100.00
29461;BME280;16428;47.836;35.106;2023-03-22T03:18:14;101306.72;;;5.14;100.00
29461;BME280;16428;47.836;35.106;2023-03-22T03:23:48;101299.03;;;5.00;100.00
29461;BME280;16428;47.836;35.106;2023-03-22T03:37:19;101320.09;;;5.03;100.00
29461;BME280;16428;47.836;35.106;2023-03-22T03:39:56;101316.06;;;5.08;100.00
29461;BME280;16428;47.836;35.106;2023-03-22T03:42:26;101316.16;;;5.07;100.00
29461;BME280;16428;47.836;35.106;2023-03-22T03:44:55;101324.25;;;5.16;100.00
29461;BME280;16428;47.836;35.106;2023-03-22T03:47:24;101323.84;;;5.21;100.00
29461;BME280;16428;47.836;35.106;2023-03-22T03:49:52;101329.13;;;5.11;100.00
29461;BME280;16428;47.836;35.106;2023-03-22T03:52:19;101335.78;;;5.06;100.00
29461;BME280;16428;47.836;35.106;2023-03-22T03:54:51;101340.38;;;5.15;100.00
29461;BME280;16428;47.836;35.106;2023-03-22T03:57:20;101335.53;;;5.09;100.00
29461;BME280;16428;47.836;35.106;2023-03-22T03:59:48;101333.00;;;5.07;100.00
29461;BME280;16428;47.836;35.106;2023-03-22T04:02:16;101332.44;;;5.04;100.00
29461;BME280;16428;47.836;35.106;2023-03-22T04:04:43;101328.19;;;5.01;100.00
29461;BME280;16428;47.836;35.106;2023-03-22T04:07:11;101325.41;;;5.03;100.00
29461;BME280;16428;47.836;35.106;2023-03-22T04:09:39;101331.91;;;5.10;100.00
29461;BME280;16428;47.836;35.106;2023-03-22T04:12:11;101334.38;;;5.22;100.00
29461;BME280;16428;47.836;35.106;2023-03-22T04:14:39;101331.09;;;5.30;100.00
29461;BME280;16428;47.836;35.106;2023-03-22T04:17:08;101341.28;;;5.25;100.00
29461;BME280;16428;47.836;35.106;2023-03-22T04:19:36;101342.47;;;5.32;100.00
29461;BME280;16428;47.836;35.106;2023-03-22T04:22:04;101351.19;;;5.34;100.00
29461;BME280;16428;47.836;35.106;2023-03-22T04:24:32;101346.31;;;5.39;100.00
29461;BME280;16428;47.836;35.106;2023-03-22T04:26:59;101345.09;;;5.43;100.00
29461;BME280;16428;47.836;35.106;2023-03-22T04:29:27;101357.84;;;5.60;100.00
29461;BME280;16428;47.836;35.106;2023-03-22T04:31:59;101355.78;;;5.64;100.00
29461;BME280;16428;47.836;35.106;2023-03-22T04:34:27;101351.56;;;5.50;100.00
29461;BME280;16428;47.836;35.106;2023-03-22T04:36:54;101359.56;;;5.50;100.00
29461;BME280;16428;47.836;35.106;2023-03-22T04:39:22;101357.59;;;5.63;100.00
29461;BME280;16428;47.836;35.106;2023-03-22T04:41:49;101370.31;;;5.81;100.00
29461;BME280;16428;47.836;35.106;2023-03-22T04:44:18;101373.97;;;5.80;100.00
29461;BME280;16428;47.836;35.106;2023-03-22T04:46:46;101371.44;;;5.78;100.00
29461;BME280;16428;47.836;35.106;2023-03-22T04:49:14;101367.84;;;5.68;100.00
29461;BME280;16428;47.836;35.106;2023-03-22T04:51:41;101371.88;;;5.62;100.00
29461;BME280;16428;47.836;35.106;2023-03-22T04:54:09;101371.16;;;5.60;100.00
29461;BME280;16428;47.836;35.106;2023-03-22T04:56:36;101368.88;;;5.56;100.00
29461;BME280;16428;47.836;35.106;2023-03-22T04:59:04;101365.13;;;5.58;100.00
29461;BME280;16428;47.836;35.106;2023-03-22T05:01:37;101357.25;;;5.57;100.00
29461;BME280;16428;47.836;35.106;2023-03-22T05:04:07;101359.28;;;5.64;100.00
29461;BME280;16428;47.836;35.106;2023-03-22T05:06:35;101369.56;;;5.90;100.00
29461;BME280;16428;47.836;35.106;2023-03-22T05:09:06;101366.16;;;5.88;100.00
29461;BME280;16428;47.836;35.106;2023-03-22T05:11:35;101376.34;;;5.94;100.00
29461;BME280;16428;47.836;35.106;2023-03-22T05:14:03;101374.28;;;5.86;100.00
29461;BME280;16428;47.836;35.106;2023-03-22T05:16:32;101382.78;;;5.91;100.00
29461;BME280;16428;47.836;35.106;2023-03-22T05:18:59;101386.03;;;5.95;100.00
29461;BME280;16428;47.836;35.106;2023-03-22T05:21:29;101387.88;;;5.94;100.00
29461;BME280;16428;47.836;35.106;2023-03-22T05:24:02;101388.72;;;5.95;100.00
29461;BME280;16428;47.836;35.106;2023-03-22T05:26:30;101395.19;;;6.02;100.00
29461;BME280;16428;47.836;35.106;2023-03-22T05:28:58;101395.56;;;5.97;100.00
29461;BME280;16428;47.836;35.106;2023-03-22T05:31:25;101403.41;;;6.10;100.00
29461;BME280;16428;47.836;35.106;2023-03-22T05:34:02;101408.19;;;6.16;100.00
29461;BME280;16428;47.836;35.106;2023-03-22T05:36:31;101400.69;;;6.31;100.00
29461;BME280;16428;47.836;35.106;2023-03-22T05:39:03;101406.09;;;6.41;100.00
29461;BME280;16428;47.836;35.106;2023-03-22T05:41:31;101405.38;;;6.79;100.00
29461;BME280;16428;47.836;35.106;2023-03-22T05:44:03;101405.31;;;6.99;100.00
29461;BME280;16428;47.836;35.106;2023-03-22T05:46:34;101415.47;;;7.15;100.00
29461;BME280;16428;47.836;35.106;2023-03-22T05:49:02;101411.25;;;7.13;100.00
29461;BME280;16428;47.836;35.106;2023-03-22T05:51:30;101418.72;;;7.38;100.00
29461;BME280;16428;47.836;35.106;2023-03-22T05:53:58;101410.47;;;7.60;100.00
29461;BME280;16428;47.836;35.106;2023-03-22T05:56:26;101411.44;;;7.79;100.00
29461;BME280;16428;47.836;35.106;2023-03-22T05:58:54;101409.72;;;7.97;100.00
29461;BME280;16428;47.836;35.106;2023-03-22T06:01:24;101421.25;;;8.07;100.00
29461;BME280;16428;47.836;35.106;2023-03-22T06:03:51;101413.63;;;8.12;100.00
29461;BME280;16428;47.836;35.106;2023-03-22T06:06:19;101420.66;;;8.23;100.00
29461;BME280;16428;47.836;35.106;2023-03-22T06:08:47;101424.75;;;8.36;100.00
29461;BME280;16428;47.836;35.106;2023-03-22T06:11:20;101415.41;;;8.40;100.00
29461;BME280;16428;47.836;35.106;2023-03-22T06:13:48;101423.66;;;8.57;100.00
29461;BME280;16428;47.836;35.106;2023-03-22T06:16:16;101430.44;;;8.61;100.00
29461;BME280;16428;47.836;35.106;2023-03-22T06:18:45;101426.75;;;8.62;100.00
29461;BME280;16428;47.836;35.106;2023-03-22T06:21:13;101434.81;;;8.89;100.00
29461;BME280;16428;47.836;35.106;2023-03-22T06:23:40;101431.75;;;8.84;100.00
29461;BME280;16428;47.836;35.106;2023-03-22T06:26:09;101436.41;;;9.09;100.00
29461;BME280;16428;47.836;35.106;2023-03-22T06:28:37;101439.28;;;9.26;100.00
29461;BME280;16428;47.836;35.106;2023-03-22T06:31:06;101432.75;;;9.10;100.00
29461;BME280;16428;47.836;35.106;2023-03-22T06:33:36;101446.53;;;9.15;100.00
29461;BME280;16428;47.836;35.106;2023-03-22T06:36:04;101439.41;;;9.24;100.00
29461;BME280;16428;47.836;35.106;2023-03-22T06:38:31;101443.81;;;9.43;100.00
29461;BME280;16428;47.836;35.106;2023-03-22T06:40:59;101449.88;;;9.63;100.00
29461;BME280;16428;47.836;35.106;2023-03-22T06:43:26;101444.91;;;9.85;100.00
29461;BME280;16428;47.836;35.106;2023-03-22T06:45:53;101445.72;;;10.04;100.00
29461;BME280;16428;47.836;35.106;2023-03-22T06:48:23;101445.16;;;10.18;100.00
29461;BME280;16428;47.836;35.106;2023-03-22T06:50:50;101444.09;;;10.29;100.00
29461;BME280;16428;47.836;35.106;2023-03-22T06:53:19;101453.81;;;10.55;100.00
29461;BME280;16428;47.836;35.106;2023-03-22T06:55:46;101454.88;;;10.63;100.00
29461;BME280;16428;47.836;35.106;2023-03-22T06:58:14;101445.78;;;10.89;100.00
29461;BME280;16428;47.836;35.106;2023-03-22T07:00:41;101460.97;;;10.73;100.00
29461;BME280;16428;47.836;35.106;2023-03-22T07:03:09;101462.25;;;10.61;100.00
29461;BME280;16428;47.836;35.106;2023-03-22T07:05:38;101458.69;;;10.52;100.00
29461;BME280;16428;47.836;35.106;2023-03-22T07:08:05;101467.09;;;10.83;100.00
29461;BME280;16428;47.836;35.106;2023-03-22T07:10:36;101465.72;;;10.79;100.00
29461;BME280;16428;47.836;35.106;2023-03-22T07:13:05;101457.38;;;10.90;100.00
29461;BME280;16428;47.836;35.106;2023-03-22T07:15:33;101458.22;;;10.90;100.00
29461;BME280;16428;47.836;35.106;2023-03-22T07:18:06;101465.25;;;11.34;100.00
29461;BME280;16428;47.836;35.106;2023-03-22T07:20:34;101466.00;;;11.52;100.00
29461;BME280;16428;47.836;35.106;2023-03-22T07:23:08;101459.56;;;11.37;100.00
29461;BME280;16428;47.836;35.106;2023-03-22T07:25:37;101466.63;;;11.38;100.00
29461;BME280;16428;47.836;35.106;2023-03-22T07:28:05;101464.25;;;11.26;100.00
29461;BME280;16428;47.836;35.106;2023-03-22T07:30:33;101468.84;;;11.50;100.00
29461;BME280;16428;47.836;35.106;2023-03-22T07:33:08;101466.41;;;11.81;100.00
29461;BME280;16428;47.836;35.106;2023-03-22T07:35:37;101476.69;;;12.18;97.12
29461;BME280;16428;47.836;35.106;2023-03-22T07:38:05;101470.44;;;12.50;95.76
29461;BME280;16428;47.836;35.106;2023-03-22T07:40:33;101473.97;;;12.43;94.89
29461;BME280;16428;47.836;35.106;2023-03-22T07:43:00;101480.53;;;12.56;93.76
29461;BME280;16428;47.836;35.106;2023-03-22T07:45:28;101482.63;;;12.93;94.47
29461;BME280;16428;47.836;35.106;2023-03-22T07:48:16;101483.00;;;13.29;91.50
29461;BME280;16428;47.836;35.106;2023-03-22T07:50:44;101486.44;;;13.54;90.88
29461;BME280;16428;47.836;35.106;2023-03-22T07:53:11;101487.53;;;13.68;89.97
29461;BME280;16428;47.836;35.106;2023-03-22T07:55:39;101479.66;;;13.58;93.03
29461;BME280;16428;47.836;35.106;2023-03-22T07:58:08;101473.91;;;13.84;89.92
29461;BME280;16428;47.836;35.106;2023-03-22T08:00:36;101471.56;;;13.81;89.06
29461;BME280;16428;47.836;35.106;2023-03-22T08:03:05;101478.13;;;14.24;87.86
29461;BME280;16428;47.836;35.106;2023-03-22T08:05:34;101465.69;;;14.38;86.02
29461;BME280;16428;47.836;35.106;2023-03-22T08:08:01;101476.03;;;14.72;85.29
29461;BME280;16428;47.836;35.106;2023-03-22T08:10:30;101470.13;;;14.98;82.75
29461;BME280;16428;47.836;35.106;2023-03-22T08:12:59;101472.38;;;15.09;82.43
29461;BME280;16428;47.836;35.106;2023-03-22T08:15:27;101474.81;;;15.04;80.78
29461;BME280;16428;47.836;35.106;2023-03-22T08:17:55;101469.72;;;15.30;78.29
29461;BME280;16428;47.836;35.106;2023-03-22T08:20:26;101470.84;;;15.36;77.52
29461;BME280;16428;47.836;35.106;2023-03-22T08:22:59;101475.09;;;15.60;74.78
29461;BME280;16428;47.836;35.106;2023-03-22T08:25:27;101476.13;;;15.59;76.25
29461;BME280;16428;47.836;35.106;2023-03-22T08:27:56;101470.38;;;15.32;75.25
29461;BME280;16428;47.836;35.106;2023-03-22T08:30:24;101470.53;;;15.45;77.05
29461;BME280;16428;47.836;35.106;2023-03-22T08:32:52;101471.66;;;16.08;73.88
29461;BME280;16428;47.836;35.106;2023-03-22T08:35:20;101469.13;;;16.28;70.98
29461;BME280;16428;47.836;35.106;2023-03-22T08:37:52;101463.41;;;16.44;69.33
29461;BME280;16428;47.836;35.106;2023-03-22T08:40:20;101458.75;;;16.38;67.83
29461;BME280;16428;47.836;35.106;2023-03-22T08:42:49;101456.53;;;16.21;67.18
29461;BME280;16428;47.836;35.106;2023-03-22T08:45:17;101456.50;;;16.14;65.57
29461;BME280;16428;47.836;35.106;2023-03-22T08:47:44;101449.41;;;16.41;64.00
29461;BME280;16428;47.836;35.106;2023-03-22T08:50:12;101451.28;;;16.40;63.77
29461;BME280;16428;47.836;35.106;2023-03-22T08:52:41;101452.78;;;16.22;66.72
29461;BME280;16428;47.836;35.106;2023-03-22T08:55:09;101450.97;;;16.84;65.06
29461;BME280;16428;47.836;35.106;2023-03-22T08:57:42;101458.53;;;17.43;61.73
29461;BME280;16428;47.836;35.106;2023-03-22T09:00:17;101457.25;;;17.26;62.58
29461;BME280;16428;47.836;35.106;2023-03-22T09:02:45;101455.13;;;17.28;60.33
29461;BME280;16428;47.836;35.106;2023-03-22T09:05:13;101449.97;;;17.46;62.68
29461;BME280;16428;47.836;35.106;2023-03-22T09:07:45;101458.69;;;17.83;60.08
29461;BME280;16428;47.836;35.106;2023-03-22T09:10:13;101450.19;;;17.38;61.39
29461;BME280;16428;47.836;35.106;2023-03-22T09:12:41;101452.78;;;17.73;64.23
29461;BME280;16428;47.836;35.106;2023-03-22T09:15:40;101457.88;;;18.09;60.76
29461;BME280;16428;47.836;35.106;2023-03-22T09:18:08;101449.91;;;17.94;61.60
29461;BME280;16428;47.836;35.106;2023-03-22T09:20:36;101435.66;;;18.58;58.60
29461;BME280;16428;47.836;35.106;2023-03-22T09:23:04;101438.19;;;18.53;57.39
29461;BME280;16428;47.836;35.106;2023-03-22T09:25:32;101446.97;;;18.55;57.19
29461;BME280;16428;47.836;35.106;2023-03-22T09:28:00;101442.56;;;18.74;53.92
29461;BME280;16428;47.836;35.106;2023-03-22T09:30:30;101440.22;;;18.90;53.96
29461;BME280;16428;47.836;35.106;2023-03-22T09:33:00;101439.03;;;18.40;52.30
29461;BME280;16428;47.836;35.106;2023-03-22T09:35:28;101426.88;;;18.49;52.94
29461;BME280;16428;47.836;35.106;2023-03-22T09:37:58;101436.53;;;18.39;52.62
29461;BME280;16428;47.836;35.106;2023-03-22T09:40:28;101432.91;;;18.91;51.04
29461;BME280;16428;47.836;35.106;2023-03-22T09:43:00;101432.16;;;19.22;50.51
29461;BME280;16428;47.836;35.106;2023-03-22T09:45:36;101427.06;;;19.32;50.94
29461;BME280;16428;47.836;35.106;2023-03-22T09:48:13;101431.81;;;19.43;50.43
29461;BME280;16428;47.836;35.106;2023-03-22T09:50:46;101430.13;;;19.55;49.65
29461;BME280;16428;47.836;35.106;2023-03-22T09:53:16;101433.63;;;19.18;46.92
29461;BME280;16428;47.836;35.106;2023-03-22T10:01:44;101423.94;;;18.64;48.43
29461;BME280;16428;47.836;35.106;2023-03-22T10:06:49;101431.84;;;18.85;49.45
29461;BME280;16428;47.836;35.106;2023-03-22T10:09:35;101429.53;;;19.40;47.78
29461;BME280;16428;47.836;35.106;2023-03-22T10:12:29;101424.28;;;19.83;47.13
29461;BME280;16428;47.836;35.106;2023-03-22T10:15:24;101415.66;;;19.04;48.16
29461;BME280;16428;47.836;35.106;2023-03-22T10:17:55;101421.81;;;18.79;48.31
29461;BME280;16428;47.836;35.106;2023-03-22T10:23:00;101423.84;;;18.97;48.32
29461;BME280;16428;47.836;35.106;2023-03-22T10:25:35;101422.59;;;19.06;48.56
29461;BME280;16428;47.836;35.106;2023-03-22T10:28:18;101425.81;;;18.70;49.09
29461;BME280;16428;47.836;35.106;2023-03-22T10:30:52;101423.47;;;18.87;49.22
29461;BME280;16428;47.836;35.106;2023-03-22T10:33:40;101414.84;;;18.96;47.82
29461;BME280;16428;47.836;35.106;2023-03-22T10:36:21;101421.59;;;19.39;45.91
29461;BME280;16428;47.836;35.106;2023-03-22T10:38:56;101410.56;;;19.65;43.44
29461;BME280;16428;47.836;35.106;2023-03-22T10:41:31;101410.22;;;19.55;42.64
29461;BME280;16428;47.836;35.106;2023-03-22T10:44:01;101402.94;;;19.74;41.83
29461;BME280;16428;47.836;35.106;2023-03-22T10:46:38;101397.41;;;19.11;43.04
29461;BME280;16428;47.836;35.106;2023-03-22T10:49:13;101401.41;;;19.46;44.76
29461;BME280;16428;47.836;35.106;2023-03-22T10:51:56;101394.75;;;19.74;44.96
29461;BME280;16428;47.836;35.106;2023-03-22T10:54:26;101393.97;;;19.28;43.63
29461;BME280;16428;47.836;35.106;2023-03-22T10:56:54;101391.16;;;19.04;44.98
29461;BME280;16428;47.836;35.106;2023-03-22T10:59:50;101387.81;;;19.02;45.87
29461;BME280;16428;47.836;35.106;2023-03-22T11:02:23;101389.34;;;19.29;44.67
29461;BME280;16428;47.836;35.106;2023-03-22T11:04:55;101379.72;;;19.26;45.94
29461;BME280;16428;47.836;35.106;2023-03-22T11:10:19;101382.16;;;19.41;44.23
29461;BME280;16428;47.836;35.106;2023-03-22T11:13:11;101378.78;;;19.52;44.17
29461;BME280;16428;47.836;35.106;2023-03-22T11:15:50;101368.25;;;19.56;43.85
29461;BME280;16428;47.836;35.106;2023-03-22T11:18:19;101365.91;;;20.16;43.41
29461;BME280;16428;47.836;35.106;2023-03-22T11:21:04;101368.00;;;19.89;42.64
29461;BME280;16428;47.836;35.106;2023-03-22T11:23:36;101369.22;;;19.30;43.13
29461;BME280;16428;47.836;35.106;2023-03-22T11:26:08;101368.72;;;19.53;43.17
29461;BME280;16428;47.836;35.106;2023-03-22T11:28:41;101366.28;;;19.38;45.57
29461;BME280;16428;47.836;35.106;2023-03-22T11:31:19;101369.16;;;19.75;43.88
29461;BME280;16428;47.836;35.106;2023-03-22T11:34:00;101355.00;;;19.91;42.91
29461;BME280;16428;47.836;35.106;2023-03-22T11:36:28;101352.69;;;19.88;42.38
29461;BME280;16428;47.836;35.106;2023-03-22T11:39:06;101353.72;;;19.93;43.40
29461;BME280;16428;47.836;35.106;2023-03-22T11:41:35;101347.81;;;19.96;42.25
29461;BME280;16428;47.836;35.106;2023-03-22T11:44:08;101353.19;;;20.03;44.38
29461;BME280;16428;47.836;35.106;2023-03-22T11:46:39;101348.56;;;20.03;43.01
29461;BME280;16428;47.836;35.106;2023-03-22T11:49:16;101353.06;;;19.98;43.36
29461;BME280;16428;47.836;35.106;2023-03-22T11:51:51;101351.16;;;19.74;42.85
29461;BME280;16428;47.836;35.106;2023-03-22T11:54:26;101355.72;;;20.84;39.80
29461;BME280;16428;47.836;35.106;2023-03-22T11:56:59;101345.50;;;20.18;43.65
29461;BME280;16428;47.836;35.106;2023-03-22T11:59:56;101352.00;;;20.17;41.14
29461;BME280;16428;47.836;35.106;2023-03-22T12:02:28;101350.25;;;20.48;40.85
29461;BME280;16428;47.836;35.106;2023-03-22T12:05:10;101352.84;;;20.43;40.29
29461;BME280;16428;47.836;35.106;2023-03-22T12:07:39;101352.56;;;20.26;41.57
29461;BME280;16428;47.836;35.106;2023-03-22T12:10:20;101348.41;;;19.42;44.41
29461;BME280;16428;47.836;35.106;2023-03-22T12:12:57;101348.81;;;19.77;43.85
29461;BME280;16428;47.836;35.106;2023-03-22T12:15:35;101344.25;;;19.96;43.18
29461;BME280;16428;47.836;35.106;2023-03-22T12:18:46;101352.47;;;19.89;41.00
29461;BME280;16428;47.836;35.106;2023-03-22T12:21:14;101343.28;;;19.59;42.26
29461;BME280;16428;47.836;35.106;2023-03-22T12:23:43;101348.63;;;20.47;40.49
29461;BME280;16428;47.836;35.106;2023-03-22T12:29:04;101350.47;;;21.19;38.75
29461;BME280;16428;47.836;35.106;2023-03-22T12:31:37;101342.16;;;20.78;39.73
29461;BME280;16428;47.836;35.106;2023-03-22T12:34:11;101345.34;;;20.38;39.68
29461;BME280;16428;47.836;35.106;2023-03-22T12:36:47;101336.78;;;20.53;39.58
29461;BME280;16428;47.836;35.106;2023-03-22T12:39:27;101346.34;;;20.62;38.84
29461;BME280;16428;47.836;35.106;2023-03-22T12:42:01;101342.50;;;20.99;38.68
29461;BME280;16428;47.836;35.106;2023-03-22T12:44:37;101350.81;;;21.53;37.66
29461;BME280;16428;47.836;35.106;2023-03-22T12:47:15;101350.16;;;21.69;36.92
29461;BME280;16428;47.836;35.106;2023-03-22T12:49:52;101347.28;;;21.64;36.36
29461;BME280;16428;47.836;35.106;2023-03-22T12:52:34;101352.38;;;21.72;36.01
29461;BME280;16428;47.836;35.106;2023-03-22T12:55:32;101342.41;;;21.66;35.74
29461;BME280;16428;47.836;35.106;2023-03-22T12:58:04;101346.56;;;21.68;35.75
29461;BME280;16428;47.836;35.106;2023-03-22T13:00:37;101346.38;;;22.52;35.39
29461;BME280;16428;47.836;35.106;2023-03-22T13:03:22;101337.75;;;22.83;34.13
29461;BME280;16428;47.836;35.106;2023-03-22T13:06:03;101348.34;;;23.20;33.21
29461;BME280;16428;47.836;35.106;2023-03-22T13:09:00;101343.97;;;23.07;33.48
29461;BME280;16428;47.836;35.106;2023-03-22T13:11:30;101345.00;;;22.77;33.99
29461;BME280;16428;47.836;35.106;2023-03-22T13:13:58;101334.72;;;22.96;34.09
29461;BME280;16428;47.836;35.106;2023-03-22T13:17:02;101334.13;;;22.42;33.54
29461;BME280;16428;47.836;35.106;2023-03-22T13:19:36;101330.94;;;21.16;35.63
29461;BME280;16428;47.836;35.106;2023-03-22T13:22:20;101323.44;;;21.41;35.89
29461;BME280;16428;47.836;35.106;2023-03-22T13:27:34;101317.97;;;21.41;35.29
29461;BME280;16428;47.836;35.106;2023-03-22T13:35:49;101324.59;;;21.22;35.69
29461;BME280;16428;47.836;35.106;2023-03-22T13:44:24;101323.78;;;21.15;35.07
29461;BME280;16428;47.836;35.106;2023-03-22T13:47:00;101319.41;;;20.65;36.47
29461;BME280;16428;47.836;35.106;2023-03-22T13:49:49;101318.09;;;20.13;36.40
29461;BME280;16428;47.836;35.106;2023-03-22T13:52:25;101316.09;;;20.20;36.71
29461;BME280;16428;47.836;35.106;2023-03-22T13:54:55;101323.13;;;20.53;37.02
29461;BME280;16428;47.836;35.106;2023-03-22T13:57:47;101318.56;;;20.28;36.52
29461;BME280;16428;47.836;35.106;2023-03-22T14:00:33;101312.72;;;19.82;36.93
29461;BME280;16428;47.836;35.106;2023-03-22T14:03:19;101322.09;;;20.11;37.40
29461;BME280;16428;47.836;35.106;2023-03-22T14:06:06;101318.59;;;20.47;36.59
29461;BME280;16428;47.836;35.106;2023-03-22T14:08:42;101304.84;;;19.92;36.89
29461;BME280;16428;47.836;35.106;2023-03-22T14:13:50;101310.50;;;20.33;37.03
29461;BME280;16428;47.836;35.106;2023-03-22T14:16:42;101304.34;;;20.20;37.23
29461;BME280;16428;47.836;35.106;2023-03-22T14:19:19;101315.19;;;20.08;36.42
29461;BME280;16428;47.836;35.106;2023-03-22T14:21:54;101306.72;;;20.34;36.23